createdAt,value
2019-03-17T00:01:30.598Z,11.60
2019-03-17T00:03:05.806Z,11.70
2019-03-17T00:04:40.525Z,11.70
2019-03-17T00:06:15.474Z,11.70
2019-03-17T00:07:51.344Z,11.60
2019-03-17T00:09:26.278Z,11.70
2019-03-17T00:11:01.029Z,11.70
2019-03-17T00:12:35.934Z,11.70
2019-03-17T00:14:10.775Z,11.70
2019-03-17T00:15:45.565Z,11.60
2019-03-17T00:17:20.322Z,11.60
2019-03-17T00:18:55.045Z,11.60
2019-03-17T00:20:29.769Z,11.60
2019-03-17T00:22:04.653Z,11.60
2019-03-17T00:23:39.370Z,11.60
2019-03-17T00:25:14.227Z,11.70
2019-03-17T00:26:48.995Z,11.60
2019-03-17T00:28:23.825Z,11.70
2019-03-17T00:29:58.661Z,11.60
2019-03-17T00:31:33.443Z,11.60
2019-03-17T00:33:08.183Z,11.50
2019-03-17T00:34:44.309Z,11.50
2019-03-17T00:36:19.487Z,11.40
2019-03-17T00:37:54.345Z,11.50
2019-03-17T00:39:30.338Z,11.40
2019-03-17T00:41:05.601Z,11.50
2019-03-17T00:42:40.454Z,11.40
2019-03-17T00:44:15.195Z,11.50
2019-03-17T00:45:49.941Z,11.50
2019-03-17T00:47:25.614Z,11.50
2019-03-17T00:49:00.376Z,11.50
2019-03-17T00:50:35.151Z,11.50
2019-03-17T00:52:09.857Z,11.50
2019-03-17T00:53:44.578Z,11.50
2019-03-17T00:55:19.565Z,11.50
2019-03-17T00:56:54.301Z,11.50
2019-03-17T00:58:29.100Z,11.50
2019-03-17T01:00:05.951Z,11.50
2019-03-17T01:01:40.877Z,11.50
2019-03-17T01:03:15.782Z,11.50
2019-03-17T01:04:56.099Z,11.50
2019-03-17T01:06:26.932Z,11.50
2019-03-17T01:08:01.644Z,11.50
2019-03-17T01:09:36.437Z,11.50
2019-03-17T01:11:11.222Z,11.60
2019-03-17T01:12:45.950Z,11.50
2019-03-17T01:14:20.962Z,11.50
2019-03-17T01:15:55.677Z,11.50
2019-03-17T01:17:30.417Z,11.50
2019-03-17T01:19:05.230Z,11.50
2019-03-17T01:20:39.991Z,11.50
2019-03-17T01:22:15.054Z,11.50
2019-03-17T01:23:49.763Z,11.50
2019-03-17T01:25:24.599Z,11.50
2019-03-17T01:26:59.394Z,11.60
2019-03-17T01:28:34.106Z,11.50
2019-03-17T01:30:09.172Z,11.60
2019-03-17T01:31:44.036Z,11.50
2019-03-17T01:33:18.858Z,11.60
2019-03-17T01:34:53.572Z,11.50
2019-03-17T01:36:28.317Z,11.50
2019-03-17T01:38:03.007Z,11.50
2019-03-17T01:39:37.730Z,11.50
2019-03-17T01:41:12.442Z,11.50
2019-03-17T01:42:47.162Z,11.60
2019-03-17T01:44:21.865Z,11.60
2019-03-17T01:45:56.621Z,11.60
2019-03-17T01:47:34.153Z,11.60
2019-03-17T01:49:09.101Z,11.60
2019-03-17T01:50:43.897Z,11.60
2019-03-17T01:52:18.697Z,11.60
2019-03-17T01:53:53.478Z,11.70
2019-03-17T01:55:28.199Z,11.70
2019-03-17T01:57:02.909Z,11.70
2019-03-17T01:58:37.636Z,11.70
2019-03-17T02:00:13.208Z,11.60
2019-03-17T02:01:48.005Z,11.70
2019-03-17T02:03:22.741Z,11.60
2019-03-17T02:04:57.473Z,11.60
2019-03-17T02:06:32.169Z,11.60
2019-03-17T02:08:06.890Z,11.60
2019-03-17T02:09:41.686Z,11.60
2019-03-17T02:11:16.490Z,11.60
2019-03-17T02:12:51.214Z,11.60
2019-03-17T02:14:25.979Z,11.60
2019-03-17T02:16:00.724Z,11.60
2019-03-17T02:17:35.466Z,11.60
2019-03-17T02:19:10.204Z,11.60
2019-03-17T02:20:45.037Z,11.60
2019-03-17T02:22:22.178Z,11.60
2019-03-17T02:23:56.157Z,11.60
2019-03-17T02:25:30.870Z,11.60
2019-03-17T02:27:05.628Z,11.60
2019-03-17T02:28:40.493Z,11.60
2019-03-17T02:30:15.432Z,11.60
2019-03-17T02:31:50.241Z,11.60
2019-03-17T02:33:25.054Z,11.60
2019-03-17T02:34:59.773Z,11.60
2019-03-17T02:36:34.574Z,11.60
2019-03-17T02:38:09.450Z,11.70
2019-03-17T02:39:44.226Z,11.60
2019-03-17T02:41:18.975Z,11.50
2019-03-17T02:42:53.999Z,11.50
2019-03-17T02:44:28.803Z,11.50
2019-03-17T02:46:03.688Z,11.40
2019-03-17T02:47:38.567Z,11.30
2019-03-17T02:49:13.442Z,11.30
2019-03-17T02:50:48.154Z,11.30
2019-03-17T02:52:22.964Z,11.20
2019-03-17T02:53:57.779Z,11.20
2019-03-17T02:55:32.853Z,11.20
2019-03-17T02:57:07.626Z,11.10
2019-03-17T02:58:42.414Z,11.00
2019-03-17T03:00:18.714Z,11.10
2019-03-17T03:01:55.425Z,11.10
2019-03-17T03:03:30.170Z,11.10
2019-03-17T03:05:05.726Z,11.00
2019-03-17T03:06:40.874Z,11.00
2019-03-17T03:08:15.651Z,10.90
2019-03-17T03:09:50.375Z,10.90
2019-03-17T03:11:25.174Z,10.90
2019-03-17T03:12:59.958Z,10.90
2019-03-17T03:14:36.786Z,10.90
2019-03-17T03:16:11.268Z,10.90
2019-03-17T03:17:46.054Z,10.90
2019-03-17T03:19:20.787Z,10.90
2019-03-17T03:20:55.640Z,10.90
2019-03-17T03:22:30.402Z,10.90
2019-03-17T03:24:05.230Z,10.80
2019-03-17T03:25:40.018Z,10.80
2019-03-17T03:27:14.871Z,10.90
2019-03-17T03:28:49.598Z,10.90
2019-03-17T03:30:24.381Z,11.00
2019-03-17T03:31:59.181Z,11.10
2019-03-17T03:33:34.181Z,11.10
2019-03-17T03:35:09.260Z,11.10
2019-03-17T03:36:44.026Z,11.20
2019-03-17T03:38:18.728Z,11.10
2019-03-17T03:39:53.463Z,11.20
2019-03-17T03:41:28.170Z,11.20
2019-03-17T03:43:03.486Z,11.20
2019-03-17T03:44:38.368Z,11.30
2019-03-17T03:46:13.119Z,11.30
2019-03-17T03:47:47.933Z,11.40
2019-03-17T03:49:22.691Z,11.40
2019-03-17T03:50:57.487Z,11.40
2019-03-17T03:52:32.213Z,11.40
2019-03-17T03:54:07.079Z,11.40
2019-03-17T03:55:42.531Z,11.50
2019-03-17T03:57:17.298Z,11.50
2019-03-17T03:58:52.284Z,11.50
2019-03-17T04:00:27.063Z,11.50
2019-03-17T04:02:01.859Z,11.50
2019-03-17T04:03:36.648Z,11.60
2019-03-17T04:05:11.461Z,11.60
2019-03-17T04:06:46.249Z,11.60
2019-03-17T04:08:21.163Z,11.60
2019-03-17T04:09:56.912Z,11.60
2019-03-17T04:11:31.718Z,11.60
2019-03-17T04:13:06.499Z,11.60
2019-03-17T04:14:41.219Z,11.60
2019-03-17T04:16:15.978Z,11.60
2019-03-17T04:17:50.804Z,11.70
2019-03-17T04:19:25.654Z,11.70
2019-03-17T04:21:00.458Z,11.60
2019-03-17T04:22:35.185Z,11.60
2019-03-17T04:24:10.066Z,11.60
2019-03-17T04:25:44.787Z,11.60
2019-03-17T04:27:19.549Z,11.70
2019-03-17T04:28:54.290Z,11.60
2019-03-17T04:30:29.148Z,11.50
2019-03-17T04:32:03.937Z,11.60
2019-03-17T04:33:38.747Z,11.50
2019-03-17T04:35:13.590Z,11.50
2019-03-17T04:36:48.385Z,11.40
2019-03-17T04:38:23.102Z,11.40
2019-03-17T04:39:57.923Z,11.40
2019-03-17T04:41:32.633Z,11.40
2019-03-17T04:43:07.374Z,11.40
2019-03-17T04:44:42.115Z,11.30
2019-03-17T04:46:16.821Z,11.30
2019-03-17T04:47:51.529Z,11.40
2019-03-17T04:49:26.287Z,11.30
2019-03-17T04:51:02.134Z,11.30
2019-03-17T04:52:36.853Z,11.30
2019-03-17T04:54:11.573Z,11.30
2019-03-17T04:55:46.319Z,11.30
2019-03-17T04:57:21.150Z,11.30
2019-03-17T04:58:55.872Z,11.40
2019-03-17T05:00:30.762Z,11.40
2019-03-17T05:02:05.632Z,11.40
2019-03-17T05:03:40.340Z,11.40
2019-03-17T05:05:15.142Z,11.40
2019-03-17T05:06:52.898Z,11.50
2019-03-17T05:08:26.286Z,11.50
2019-03-17T05:10:01.065Z,11.50
2019-03-17T05:11:35.773Z,11.50
2019-03-17T05:13:10.574Z,11.50
2019-03-17T05:14:45.376Z,11.60
2019-03-17T05:16:20.093Z,11.60
2019-03-17T05:17:54.821Z,11.50
2019-03-17T05:19:31.290Z,11.60
2019-03-17T05:21:06.004Z,11.60
2019-03-17T05:22:40.754Z,11.60
2019-03-17T05:24:15.539Z,11.60
2019-03-17T05:25:50.264Z,11.60
2019-03-17T05:27:25.083Z,11.60
2019-03-17T05:28:59.905Z,11.60
2019-03-17T05:30:34.788Z,11.60
2019-03-17T05:32:09.579Z,11.60
2019-03-17T05:33:46.093Z,11.60
2019-03-17T05:35:20.837Z,11.60
2019-03-17T05:37:05.520Z,11.60
2019-03-17T05:38:31.965Z,11.60
2019-03-17T05:40:06.993Z,11.60
2019-03-17T05:41:41.735Z,11.60
2019-03-17T05:43:16.488Z,11.60
2019-03-17T05:44:51.270Z,11.70
2019-03-17T05:46:26.038Z,11.70
2019-03-17T05:48:00.777Z,11.70
2019-03-17T05:49:35.561Z,11.70
2019-03-17T05:51:10.266Z,11.70
2019-03-17T05:52:45.024Z,11.80
2019-03-17T05:54:19.781Z,11.80
2019-03-17T05:55:54.513Z,11.80
2019-03-17T05:57:29.358Z,11.80
2019-03-17T05:59:04.237Z,11.70
2019-03-17T06:00:39.113Z,11.70
2019-03-17T06:02:13.894Z,11.80
2019-03-17T06:03:48.895Z,11.80
2019-03-17T06:05:23.701Z,11.70
2019-03-17T06:06:58.439Z,11.80
2019-03-17T06:08:33.779Z,11.80
2019-03-17T06:10:10.114Z,11.80
2019-03-17T06:11:44.974Z,11.80
2019-03-17T06:13:19.689Z,11.70
2019-03-17T06:14:54.434Z,11.80
2019-03-17T06:16:30.206Z,11.80
2019-03-17T06:18:05.010Z,11.80
2019-03-17T06:19:39.758Z,11.80
2019-03-17T06:21:14.597Z,11.80
2019-03-17T06:22:49.341Z,11.80
2019-03-17T06:24:24.112Z,11.70
2019-03-17T06:25:58.833Z,11.70
2019-03-17T06:27:33.560Z,11.80
2019-03-17T06:29:08.330Z,11.80
2019-03-17T06:30:43.082Z,11.70
2019-03-17T06:32:17.959Z,11.80
2019-03-17T06:33:52.693Z,11.70
2019-03-17T06:35:27.526Z,11.70
2019-03-17T06:37:02.358Z,11.60
2019-03-17T06:38:37.105Z,11.60
2019-03-17T06:40:12.001Z,11.70
2019-03-17T06:41:46.862Z,11.70
2019-03-17T06:43:21.629Z,11.70
2019-03-17T06:44:56.398Z,11.80
2019-03-17T06:46:31.117Z,11.60
2019-03-17T06:48:06.061Z,11.60
2019-03-17T06:49:40.842Z,11.70
2019-03-17T06:51:15.637Z,11.80
2019-03-17T06:52:53.321Z,11.80
2019-03-17T06:54:26.830Z,11.80
2019-03-17T06:56:01.555Z,11.90
2019-03-17T06:57:36.697Z,12.00
2019-03-17T06:59:11.490Z,11.90
2019-03-17T07:00:46.301Z,12.00
2019-03-17T07:02:21.125Z,12.00
2019-03-17T07:03:55.927Z,12.00
2019-03-17T07:05:30.646Z,12.00
2019-03-17T07:07:05.465Z,12.00
2019-03-17T07:08:40.264Z,11.90
2019-03-17T07:10:15.145Z,11.90
2019-03-17T07:11:49.985Z,12.00
2019-03-17T07:13:24.735Z,12.00
2019-03-17T07:14:59.435Z,11.90
2019-03-17T07:16:34.155Z,11.90
2019-03-17T07:18:09.278Z,11.80
2019-03-17T07:19:44.107Z,11.90
2019-03-17T07:21:18.882Z,11.90
2019-03-17T07:22:53.619Z,11.90
2019-03-17T07:24:28.762Z,11.90
2019-03-17T07:26:03.500Z,11.90
2019-03-17T07:27:38.232Z,12.00
2019-03-17T07:29:13.044Z,12.00
2019-03-17T07:30:47.834Z,12.00
2019-03-17T07:32:22.614Z,12.00
2019-03-17T07:33:57.389Z,11.90
2019-03-17T07:35:32.097Z,11.90
2019-03-17T07:37:06.897Z,11.90
2019-03-17T07:38:41.661Z,12.00
2019-03-17T07:40:16.446Z,12.00
2019-03-17T07:41:51.165Z,11.90
2019-03-17T07:43:25.893Z,11.80
2019-03-17T07:45:00.634Z,11.90
2019-03-17T07:46:35.404Z,11.70
2019-03-17T07:48:10.223Z,11.80
2019-03-17T07:49:45.017Z,11.60
2019-03-17T07:51:19.830Z,11.70
2019-03-17T07:52:54.550Z,11.70
2019-03-17T07:54:29.471Z,11.70
2019-03-17T07:56:04.330Z,11.60
2019-03-17T07:57:39.159Z,11.60
2019-03-17T07:59:13.945Z,11.70
2019-03-17T08:00:48.783Z,11.60
2019-03-17T08:02:23.545Z,11.60
2019-03-17T08:03:58.294Z,11.60
2019-03-17T08:05:33.041Z,11.60
2019-03-17T08:07:07.771Z,11.50
2019-03-17T08:08:42.612Z,11.50
2019-03-17T08:10:18.447Z,11.50
2019-03-17T08:11:53.352Z,11.50
2019-03-17T08:13:28.082Z,11.60
2019-03-17T08:15:02.919Z,11.60
2019-03-17T08:16:37.790Z,11.70
2019-03-17T08:18:12.623Z,11.70
2019-03-17T08:19:47.402Z,11.70
2019-03-17T08:21:22.149Z,11.70
2019-03-17T08:22:56.874Z,11.80
2019-03-17T08:24:31.677Z,11.80
2019-03-17T08:26:06.533Z,11.80
2019-03-17T08:27:41.285Z,11.80
2019-03-17T08:29:16.058Z,11.90
2019-03-17T08:30:53.426Z,11.90
2019-03-17T08:32:27.209Z,11.80
2019-03-17T08:34:01.998Z,12.00
2019-03-17T08:35:36.717Z,12.10
2019-03-17T08:37:11.489Z,12.10
2019-03-17T08:38:46.230Z,12.00
2019-03-17T08:40:21.030Z,11.90
2019-03-17T08:41:55.882Z,11.90
2019-03-17T08:43:30.714Z,11.90
2019-03-17T08:45:06.517Z,11.90
2019-03-17T08:46:42.209Z,11.80
2019-03-17T08:48:16.945Z,11.80
2019-03-17T08:49:51.819Z,11.70
2019-03-17T08:51:26.655Z,11.80
2019-03-17T08:53:01.493Z,11.90
2019-03-17T08:54:42.357Z,11.90
2019-03-17T08:56:17.083Z,11.80
2019-03-17T08:57:51.805Z,11.70
2019-03-17T08:59:26.640Z,11.70
2019-03-17T09:01:01.469Z,11.80
2019-03-17T09:02:36.613Z,11.80
2019-03-17T09:04:11.431Z,11.70
2019-03-17T09:05:46.226Z,11.60
2019-03-17T09:07:20.966Z,11.50
2019-03-17T09:08:55.682Z,11.30
2019-03-17T09:10:31.474Z,10.80
2019-03-17T09:12:06.343Z,10.50
2019-03-17T09:13:41.052Z,10.40
2019-03-17T09:15:15.881Z,10.30
2019-03-17T09:16:50.667Z,10.30
2019-03-17T09:18:26.887Z,10.00
2019-03-17T09:20:03.348Z,9.70
2019-03-17T09:21:38.122Z,9.80
2019-03-17T09:23:12.875Z,9.70
2019-03-17T09:24:47.661Z,9.50
2019-03-17T09:26:22.438Z,9.50
2019-03-17T09:27:57.156Z,9.50
2019-03-17T09:29:31.913Z,9.50
2019-03-17T09:31:07.600Z,9.50
2019-03-17T09:32:42.482Z,9.50
2019-03-17T09:34:17.277Z,9.50
2019-03-17T09:35:51.982Z,9.60
2019-03-17T09:37:26.709Z,9.50
2019-03-17T09:39:01.407Z,9.50
2019-03-17T09:40:36.391Z,9.70
2019-03-17T09:42:11.303Z,9.80
2019-03-17T09:43:47.238Z,9.90
2019-03-17T09:45:21.974Z,10.30
2019-03-17T09:46:56.771Z,10.40
2019-03-17T09:48:31.490Z,10.30
2019-03-17T09:50:07.442Z,10.40
2019-03-17T09:51:42.172Z,10.50
2019-03-17T09:53:16.982Z,10.50
2019-03-17T09:54:51.842Z,10.40
2019-03-17T09:56:26.657Z,10.20
2019-03-17T09:58:01.425Z,10.20
2019-03-17T09:59:36.181Z,10.10
2019-03-17T10:01:10.917Z,10.20
2019-03-17T10:02:45.818Z,10.20
2019-03-17T10:04:20.619Z,10.40
2019-03-17T10:05:55.438Z,10.50
2019-03-17T10:07:30.149Z,10.70
2019-03-17T10:09:07.536Z,10.80
2019-03-17T10:10:42.308Z,10.90
2019-03-17T10:12:17.025Z,11.00
2019-03-17T10:13:51.761Z,11.20
2019-03-17T10:15:27.537Z,11.10
2019-03-17T10:17:02.301Z,11.10
2019-03-17T10:18:37.076Z,11.10
2019-03-17T10:20:15.538Z,11.20
2019-03-17T10:21:50.331Z,11.50
2019-03-17T10:23:25.137Z,11.50
2019-03-17T10:24:59.846Z,11.50
2019-03-17T10:26:34.567Z,11.60
2019-03-17T10:28:09.321Z,11.80
2019-03-17T10:29:44.107Z,12.00
2019-03-17T10:31:18.846Z,11.70
2019-03-17T10:32:53.702Z,11.70
2019-03-17T10:34:28.418Z,11.70
2019-03-17T10:36:03.148Z,11.80
2019-03-17T10:37:38.035Z,11.70
2019-03-17T10:39:12.945Z,11.60
2019-03-17T10:40:47.733Z,11.40
2019-03-17T10:42:22.469Z,11.20
2019-03-17T10:43:57.230Z,11.20
2019-03-17T10:45:31.989Z,11.40
2019-03-17T10:47:06.693Z,11.40
2019-03-17T10:48:41.501Z,11.30
2019-03-17T10:50:16.430Z,11.00
2019-03-17T10:51:51.224Z,10.80
2019-03-17T10:53:25.956Z,10.80
2019-03-17T10:55:00.726Z,11.00
2019-03-17T10:56:35.498Z,11.00
2019-03-17T10:58:10.278Z,10.90
2019-03-17T10:59:45.022Z,10.80
2019-03-17T11:01:19.950Z,11.00
2019-03-17T11:02:54.665Z,11.50
2019-03-17T11:04:29.377Z,11.70
2019-03-17T11:06:05.337Z,11.90
2019-03-17T11:07:40.301Z,11.90
2019-03-17T11:09:24.757Z,12.10
2019-03-17T11:10:51.542Z,12.10
2019-03-17T11:12:27.382Z,11.70
2019-03-17T11:14:02.142Z,12.10
2019-03-17T11:15:36.874Z,12.00
2019-03-17T11:17:11.870Z,12.20
2019-03-17T11:18:46.610Z,12.30
2019-03-17T11:20:21.506Z,12.50
2019-03-17T11:21:56.221Z,12.80
2019-03-17T11:23:31.041Z,13.00
2019-03-17T11:25:06.167Z,13.10
2019-03-17T11:26:40.939Z,12.90
2019-03-17T11:28:15.669Z,13.00
2019-03-17T11:29:50.540Z,12.80
2019-03-17T11:31:25.277Z,12.80
2019-03-17T11:33:00.079Z,12.70
2019-03-17T11:34:34.979Z,12.50
2019-03-17T11:36:09.789Z,12.80
2019-03-17T11:37:45.574Z,13.10
2019-03-17T11:39:20.373Z,13.00
2019-03-17T11:40:55.217Z,12.50
2019-03-17T11:42:30.130Z,12.40
2019-03-17T11:44:05.209Z,12.60
2019-03-17T11:45:39.945Z,12.70
2019-03-17T11:47:14.771Z,12.70
2019-03-17T11:48:49.567Z,12.90
2019-03-17T11:50:24.370Z,13.00
2019-03-17T11:51:59.117Z,13.30
2019-03-17T11:53:33.908Z,13.40
2019-03-17T11:55:09.034Z,12.90
2019-03-17T11:56:43.885Z,12.90
2019-03-17T11:58:18.701Z,13.00
2019-03-17T11:59:53.442Z,13.10
2019-03-17T12:01:28.170Z,13.10
2019-03-17T12:03:03.007Z,13.10
2019-03-17T12:04:37.826Z,12.90
2019-03-17T12:06:12.550Z,13.00
2019-03-17T12:07:47.500Z,13.50
2019-03-17T12:09:28.949Z,13.60
2019-03-17T12:10:58.817Z,13.50
2019-03-17T12:12:33.603Z,13.50
2019-03-17T12:14:09.867Z,13.10
2019-03-17T12:15:44.802Z,13.20
2019-03-17T12:17:19.528Z,13.00
2019-03-17T12:18:54.233Z,13.30
2019-03-17T12:20:29.077Z,12.90
2019-03-17T12:22:08.916Z,13.00
2019-03-17T12:23:40.299Z,12.90
2019-03-17T12:25:15.165Z,12.70
2019-03-17T12:26:49.902Z,13.10
2019-03-17T12:28:24.650Z,12.90
2019-03-17T12:30:02.430Z,13.00
2019-03-17T12:31:38.353Z,13.10
2019-03-17T12:33:13.182Z,13.10
2019-03-17T12:34:47.987Z,12.90
2019-03-17T12:36:22.700Z,12.80
2019-03-17T12:37:57.642Z,12.90
2019-03-17T12:39:32.359Z,13.10
2019-03-17T12:41:07.251Z,13.10
2019-03-17T12:42:42.036Z,13.20
2019-03-17T12:44:16.914Z,13.30
2019-03-17T12:45:51.698Z,13.20
2019-03-17T12:47:26.418Z,12.90
2019-03-17T12:49:01.169Z,13.10
2019-03-17T12:50:35.962Z,13.00
2019-03-17T12:52:10.758Z,12.90
2019-03-17T12:53:45.519Z,12.90
2019-03-17T12:55:20.385Z,12.80
2019-03-17T12:56:55.118Z,12.90
2019-03-17T12:58:30.002Z,13.00
2019-03-17T13:00:06.061Z,13.00
2019-03-17T13:01:40.984Z,13.00
2019-03-17T13:03:15.781Z,13.20
2019-03-17T13:04:50.855Z,12.90
2019-03-17T13:06:25.580Z,13.00
2019-03-17T13:08:00.459Z,12.90
2019-03-17T13:09:35.178Z,12.50
2019-03-17T13:11:10.006Z,12.60
2019-03-17T13:12:44.792Z,12.40
2019-03-17T13:14:19.566Z,12.20
2019-03-17T13:15:54.288Z,12.20
2019-03-17T13:17:29.485Z,12.00
2019-03-17T13:19:04.371Z,11.90
2019-03-17T13:20:39.254Z,11.30
2019-03-17T13:22:14.012Z,11.10
2019-03-17T13:23:48.790Z,10.70
2019-03-17T13:25:23.602Z,10.50
2019-03-17T13:26:58.326Z,10.50
2019-03-17T13:28:33.046Z,10.70
2019-03-17T13:30:09.148Z,10.80
2019-03-17T13:31:43.889Z,10.90
2019-03-17T13:33:18.687Z,10.80
2019-03-17T13:34:53.498Z,11.00
2019-03-17T13:36:28.217Z,11.10
2019-03-17T13:38:02.935Z,11.20
2019-03-17T13:39:37.670Z,11.10
2019-03-17T13:41:12.382Z,11.10
2019-03-17T13:42:47.302Z,11.10
2019-03-17T13:44:22.125Z,11.20
2019-03-17T13:45:56.959Z,11.40
2019-03-17T13:47:31.755Z,11.50
2019-03-17T13:49:06.603Z,11.30
2019-03-17T13:50:41.389Z,11.50
2019-03-17T13:52:16.264Z,11.70
2019-03-17T13:53:51.130Z,11.90
2019-03-17T13:55:25.986Z,11.90
2019-03-17T13:57:00.721Z,11.90
2019-03-17T13:58:35.433Z,12.10
2019-03-17T14:00:12.827Z,12.00
2019-03-17T14:01:47.642Z,12.10
2019-03-17T14:03:22.381Z,11.90
2019-03-17T14:04:57.204Z,12.00
2019-03-17T14:06:31.969Z,11.70
2019-03-17T14:08:06.853Z,11.60
2019-03-17T14:09:41.565Z,11.60
2019-03-17T14:11:16.422Z,11.30
2019-03-17T14:12:51.345Z,11.20
2019-03-17T14:14:27.042Z,11.20
2019-03-17T14:16:01.844Z,11.20
2019-03-17T14:17:36.888Z,11.20
2019-03-17T14:19:11.810Z,11.00
2019-03-17T14:20:46.793Z,10.70
2019-03-17T14:22:21.513Z,10.70
2019-03-17T14:23:56.222Z,10.40
2019-03-17T14:25:31.582Z,10.20
2019-03-17T14:27:06.400Z,10.20
2019-03-17T14:28:41.113Z,9.80
2019-03-17T14:30:16.381Z,9.40
2019-03-17T14:31:52.146Z,9.10
2019-03-17T14:33:26.864Z,9.00
2019-03-17T14:35:01.593Z,9.10
2019-03-17T14:36:36.326Z,9.00
2019-03-17T14:38:11.014Z,9.00
2019-03-17T14:39:45.718Z,8.80
2019-03-17T14:41:20.501Z,9.00
2019-03-17T14:42:56.306Z,9.30
2019-03-17T14:44:31.094Z,9.40
2019-03-17T14:46:06.074Z,9.50
2019-03-17T14:47:40.814Z,9.40
2019-03-17T14:49:15.615Z,9.60
2019-03-17T14:50:50.301Z,9.70
2019-03-17T14:52:26.090Z,9.50
2019-03-17T14:54:00.825Z,9.50
2019-03-17T14:55:35.677Z,9.40
2019-03-17T14:57:10.429Z,9.40
2019-03-17T14:58:46.245Z,9.50
2019-03-17T15:00:21.039Z,9.50
2019-03-17T15:01:55.774Z,9.50
2019-03-17T15:03:30.546Z,9.50
2019-03-17T15:05:06.041Z,9.50
2019-03-17T15:06:40.861Z,9.40
2019-03-17T15:08:15.759Z,9.10
2019-03-17T15:09:50.470Z,9.10
2019-03-17T15:11:27.312Z,9.10
2019-03-17T15:13:01.601Z,9.10
2019-03-17T15:14:36.312Z,9.10
2019-03-17T15:16:11.105Z,8.80
2019-03-17T15:17:46.291Z,8.50
2019-03-17T15:19:21.029Z,8.30
2019-03-17T15:20:55.762Z,8.10
2019-03-17T15:22:30.722Z,8.20
2019-03-17T15:24:05.557Z,8.10
2019-03-17T15:25:40.309Z,8.00
2019-03-17T15:27:15.101Z,8.10
2019-03-17T15:28:49.818Z,8.20
2019-03-17T15:30:24.937Z,8.20
2019-03-17T15:31:59.734Z,8.30
2019-03-17T15:33:34.534Z,8.20
2019-03-17T15:35:10.121Z,8.30
2019-03-17T15:36:44.854Z,8.30
2019-03-17T15:38:19.782Z,8.50
2019-03-17T15:39:54.568Z,8.50
2019-03-17T15:41:29.348Z,8.50
2019-03-17T15:43:04.233Z,8.70
2019-03-17T15:44:38.966Z,8.80
2019-03-17T15:46:13.677Z,9.00
2019-03-17T15:47:48.494Z,8.90
2019-03-17T15:49:23.346Z,9.00
2019-03-17T15:50:58.139Z,9.00
2019-03-17T15:52:32.940Z,9.00
2019-03-17T15:54:07.677Z,9.10
2019-03-17T15:55:42.474Z,9.00
2019-03-17T15:57:17.294Z,9.00
2019-03-17T15:58:52.010Z,8.80
2019-03-17T16:00:27.442Z,8.70
2019-03-17T16:02:02.311Z,8.80
2019-03-17T16:03:37.053Z,8.70
2019-03-17T16:05:12.382Z,8.60
2019-03-17T16:06:47.115Z,8.60
2019-03-17T16:08:21.958Z,8.60
2019-03-17T16:09:56.658Z,8.50
2019-03-17T16:11:31.485Z,8.50
2019-03-17T16:13:06.259Z,8.50
2019-03-17T16:14:40.989Z,8.50
2019-03-17T16:16:15.694Z,8.50
2019-03-17T16:17:50.567Z,8.50
2019-03-17T16:19:25.343Z,8.40
2019-03-17T16:21:00.126Z,8.40
2019-03-17T16:22:34.860Z,8.40
2019-03-17T16:24:09.642Z,8.40
2019-03-17T16:25:44.373Z,8.40
2019-03-17T16:27:19.088Z,8.40
2019-03-17T16:28:53.917Z,8.40
2019-03-17T16:30:28.984Z,8.40
2019-03-17T16:32:03.843Z,8.30
2019-03-17T16:33:38.591Z,8.40
2019-03-17T16:35:14.518Z,8.40
2019-03-17T16:36:49.278Z,8.40
2019-03-17T16:38:24.061Z,8.40
2019-03-17T16:39:58.806Z,8.40
2019-03-17T16:41:42.877Z,8.40
2019-03-17T16:43:10.043Z,8.40
2019-03-17T16:44:44.810Z,8.40
2019-03-17T16:46:19.521Z,8.40
2019-03-17T16:47:54.531Z,8.40
2019-03-17T16:49:29.239Z,8.30
2019-03-17T16:51:04.230Z,8.20
2019-03-17T16:52:39.019Z,8.20
2019-03-17T16:54:14.147Z,8.20
2019-03-17T16:55:48.934Z,8.20
2019-03-17T16:57:23.674Z,8.20
2019-03-17T16:58:58.441Z,8.20
2019-03-17T17:00:33.438Z,8.10
2019-03-17T17:02:08.223Z,8.10
2019-03-17T17:03:43.177Z,8.10
2019-03-17T17:05:18.095Z,8.10
2019-03-17T17:06:52.798Z,8.00
2019-03-17T17:08:27.516Z,7.90
2019-03-17T17:10:02.362Z,7.90
2019-03-17T17:11:37.184Z,7.90
2019-03-17T17:13:11.966Z,8.00
2019-03-17T17:14:46.686Z,8.00
2019-03-17T17:16:21.463Z,8.00
2019-03-17T17:17:56.325Z,8.00
2019-03-17T17:19:31.470Z,8.00
2019-03-17T17:21:06.185Z,8.00
2019-03-17T17:22:40.931Z,7.90
2019-03-17T17:24:15.656Z,7.90
2019-03-17T17:25:51.505Z,8.00
2019-03-17T17:27:26.274Z,8.10
2019-03-17T17:29:01.027Z,8.20
2019-03-17T17:30:35.902Z,8.10
2019-03-17T17:32:10.622Z,8.20
2019-03-17T17:33:45.422Z,8.20
2019-03-17T17:35:20.249Z,8.20
2019-03-17T17:36:55.127Z,8.30
2019-03-17T17:38:29.995Z,8.30
2019-03-17T17:40:05.425Z,8.20
2019-03-17T17:41:40.212Z,8.10
2019-03-17T17:43:14.953Z,8.10
2019-03-17T17:44:49.741Z,8.00
2019-03-17T17:46:24.461Z,8.10
2019-03-17T17:47:59.253Z,8.00
2019-03-17T17:49:34.014Z,7.90
2019-03-17T17:51:08.743Z,7.90
2019-03-17T17:52:43.493Z,7.90
2019-03-17T17:54:19.236Z,7.80
2019-03-17T17:55:54.053Z,7.80
2019-03-17T17:57:28.769Z,7.80
2019-03-17T17:59:03.509Z,7.70
2019-03-17T18:00:40.274Z,7.70
2019-03-17T18:02:17.082Z,7.70
2019-03-17T18:03:52.093Z,7.70
2019-03-17T18:05:26.981Z,7.60
2019-03-17T18:07:01.709Z,7.60
2019-03-17T18:08:36.430Z,7.50
2019-03-17T18:10:11.429Z,7.50
2019-03-17T18:11:46.149Z,7.50
2019-03-17T18:13:20.911Z,7.50
2019-03-17T18:14:55.725Z,7.50
2019-03-17T18:16:30.514Z,7.50
2019-03-17T18:18:05.321Z,7.40
2019-03-17T18:19:40.121Z,7.40
2019-03-17T18:21:14.857Z,7.30
2019-03-17T18:22:49.676Z,7.40
2019-03-17T18:24:24.417Z,7.40
2019-03-17T18:25:59.130Z,7.40
2019-03-17T18:27:34.067Z,7.40
2019-03-17T18:29:08.947Z,7.50
2019-03-17T18:30:43.650Z,7.40
2019-03-17T18:32:18.426Z,7.50
2019-03-17T18:33:53.209Z,7.50
2019-03-17T18:35:28.002Z,7.50
2019-03-17T18:37:02.799Z,7.40
2019-03-17T18:38:37.560Z,7.50
2019-03-17T18:40:13.421Z,7.60
2019-03-17T18:41:48.185Z,7.60
2019-03-17T18:43:22.965Z,7.70
2019-03-17T18:44:57.687Z,7.80
2019-03-17T18:46:32.518Z,7.70
2019-03-17T18:48:08.204Z,7.80
2019-03-17T18:49:43.018Z,7.80
2019-03-17T18:51:17.750Z,7.70
2019-03-17T18:52:52.534Z,7.70
2019-03-17T18:54:27.257Z,7.60
2019-03-17T18:56:02.395Z,7.60
2019-03-17T18:57:37.581Z,7.50
2019-03-17T18:59:12.502Z,7.50
2019-03-17T19:00:47.342Z,7.50
2019-03-17T19:02:23.369Z,7.60
2019-03-17T19:03:58.128Z,7.60
2019-03-17T19:05:32.891Z,7.60
2019-03-17T19:07:07.654Z,7.60
2019-03-17T19:08:42.400Z,7.60
2019-03-17T19:10:17.745Z,7.60
2019-03-17T19:11:52.521Z,7.60
2019-03-17T19:13:27.261Z,7.60
2019-03-17T19:15:02.099Z,7.60
2019-03-17T19:16:36.817Z,7.50
2019-03-17T19:18:11.625Z,7.50
2019-03-17T19:19:46.701Z,7.50
2019-03-17T19:21:21.448Z,7.40
2019-03-17T19:22:56.249Z,7.40
2019-03-17T19:24:31.118Z,7.40
2019-03-17T19:26:06.218Z,7.40
2019-03-17T19:27:41.115Z,7.40
2019-03-17T19:29:15.914Z,7.40
2019-03-17T19:30:50.717Z,7.40
2019-03-17T19:32:25.487Z,7.30
2019-03-17T19:34:00.214Z,7.30
2019-03-17T19:35:35.274Z,7.30
2019-03-17T19:37:10.002Z,7.20
2019-03-17T19:38:44.737Z,7.20
2019-03-17T19:40:19.578Z,7.10
2019-03-17T19:41:54.447Z,7.10
2019-03-17T19:43:29.235Z,7.20
2019-03-17T19:45:06.005Z,7.20
2019-03-17T19:46:40.735Z,7.10
2019-03-17T19:48:15.538Z,7.10
2019-03-17T19:49:50.255Z,7.00
2019-03-17T19:51:25.051Z,7.00
2019-03-17T19:52:59.802Z,7.10
2019-03-17T19:54:34.513Z,7.10
2019-03-17T19:56:09.242Z,7.10
2019-03-17T19:57:44.038Z,7.10
2019-03-17T19:59:18.901Z,7.10
2019-03-17T20:00:53.683Z,7.10
2019-03-17T20:02:28.494Z,7.00
2019-03-17T20:04:03.464Z,7.00
2019-03-17T20:05:38.201Z,7.00
2019-03-17T20:07:12.993Z,7.00
2019-03-17T20:08:47.713Z,7.00
2019-03-17T20:10:23.028Z,7.00
2019-03-17T20:11:57.833Z,6.90
2019-03-17T20:13:32.573Z,7.00
2019-03-17T20:15:07.494Z,7.00
2019-03-17T20:16:42.286Z,7.00
2019-03-17T20:18:17.073Z,6.90
2019-03-17T20:19:52.830Z,7.00
2019-03-17T20:21:27.591Z,7.00
2019-03-17T20:23:02.385Z,6.90
2019-03-17T20:24:37.126Z,6.90
2019-03-17T20:26:11.891Z,6.90
2019-03-17T20:27:46.704Z,6.90
2019-03-17T20:29:21.538Z,6.90
2019-03-17T20:30:56.268Z,6.90
2019-03-17T20:32:31.117Z,6.90
2019-03-17T20:34:06.000Z,6.90
2019-03-17T20:35:40.737Z,6.90